Time;durP1;ratioP1;P1;durP2;ratioP2;P2;SDS_P1;SDS_P2;PMS_P1;PMS_P2;Temp;Humidity;BMP_temperature;BMP_pressure;BME280_temperature;BME280_humidity;BME280_pressure;Samples;Min_cycle;Max_cycle;Signal;HPM_P1;HPM_P2
2022/09/20 00:00:50;;;;;;;12.57;2.70;;;;;;;-145.69;100.00;72771.66;5074764;28;20216;-76
2022/09/20 00:03:17;;;;;;;11.03;2.73;;;;;;;-145.69;100.00;72767.69;5092967;28;20201;-75
2022/09/20 00:05:46;;;;;;;5.73;2.40;;;;;;;-145.69;100.00;72777.63;5093708;28;20360;-74
2022/09/20 00:08:15;;;;;;;10.87;2.33;;;;;;;-145.69;100.00;72791.56;5096847;28;20330;-75
2022/09/20 00:10:42;;;;;;;6.73;2.60;;;;;;;-145.69;100.00;72787.56;5096905;28;20205;-77
2022/09/20 00:13:11;;;;;;;9.07;2.70;;;;;;;-145.69;100.00;72787.56;5096585;28;20578;-76
2022/09/20 00:15:42;;;;;;;6.37;2.83;;;;;;;-145.69;100.00;72799.53;5084479;28;20202;-77
2022/09/20 00:18:10;;;;;;;8.27;2.17;;;;;;;-145.69;100.00;72819.44;5076585;28;20199;-76
2022/09/20 00:20:37;;;;;;;10.03;2.43;;;;;;;-145.69;100.00;72831.38;5076174;28;20682;-77
2022/09/20 00:23:04;;;;;;;5.77;1.90;;;;;;;-145.69;100.00;72831.38;5076333;28;20206;-76
2022/09/20 00:25:30;;;;;;;8.17;2.13;;;;;;;-145.69;100.00;72835.34;5076254;28;20202;-77
2022/09/20 00:27:57;;;;;;;7.00;2.20;;;;;;;-145.69;100.00;72831.38;5076089;28;20206;-76
2022/09/20 00:30:24;;;;;;;12.07;2.60;;;;;;;-145.69;100.00;72837.34;5094171;28;20194;-76
2022/09/20 00:32:50;;;;;;;6.73;1.97;;;;;;;-145.69;100.00;72849.28;5096562;28;20202;-76
2022/09/20 00:35:17;;;;;;;8.40;2.50;;;;;;;-145.69;100.00;72853.28;5096334;28;20198;-76
2022/09/20 00:37:44;;;;;;;7.60;2.30;;;;;;;-145.69;100.00;72843.31;5096408;28;20202;-76
2022/09/20 00:40:15;;;;;;;8.10;2.80;;;;;;;-145.69;100.00;72847.28;5096244;28;20572;-76
2022/09/20 00:42:42;;;;;;;6.93;2.73;;;;;;;-145.69;100.00;72863.22;5088607;28;20279;-76
2022/09/20 00:45:19;;;;;;;7.60;2.30;;;;;;;-145.69;100.00;72851.28;5076248;28;20230;-76
2022/09/20 00:47:50;;;;;;;8.63;2.20;;;;;;;-145.69;100.00;72839.34;5075935;28;20198;-76
2022/09/20 00:50:31;;;;;;;11.27;2.77;;;;;;;-145.69;100.00;72847.28;5075577;28;20246;-76
2022/09/20 00:53:03;;;;;;;10.73;2.50;;;;;;;-145.69;100.00;72863.22;5075667;28;20226;-76
2022/09/20 00:55:30;;;;;;;12.77;3.70;;;;;;;-145.69;100.00;72857.25;5072699;28;20495;-76
2022/09/20 00:57:58;;;;;;;13.43;3.00;;;;;;;-145.69;100.00;72831.38;5094822;28;20604;-75
2022/09/20 01:00:26;;;;;;;11.73;2.70;;;;;;;-145.69;100.00;72829.38;5095864;28;20664;-76
2022/09/20 01:02:58;;;;;;;15.00;3.00;;;;;;;-145.69;100.00;72819.44;5095916;28;20205;-75
2022/09/20 01:05:27;;;;;;;6.87;3.00;;;;;;;-145.69;100.00;72811.47;5095630;28;20206;-76
2022/09/20 01:07:56;;;;;;;16.83;2.67;;;;;;;-145.69;100.00;72825.41;5095939;28;20348;-77
2022/09/20 01:10:22;;;;;;;5.17;2.10;;;;;;;-145.69;100.00;72853.28;5085959;28;20688;-76
2022/09/20 01:12:51;;;;;;;8.80;2.30;;;;;;;-145.69;100.00;72863.22;5075518;28;20198;-76
2022/09/20 01:15:19;;;;;;;10.60;2.27;;;;;;;-145.69;100.00;72875.16;5075309;28;20242;-76
2022/09/20 01:17:54;;;;;;;11.00;2.90;;;;;;;-145.69;100.00;72883.13;5074918;28;20680;-76
2022/09/20 01:20:25;;;;;;;7.63;2.33;;;;;;;-145.69;100.00;72875.16;5075661;28;20213;-76
2022/09/20 01:23:23;;;;;;;11.87;2.40;;;;;;;-145.69;100.00;72873.19;5075431;28;20208;-75
2022/09/20 01:26:16;;;;;;;9.23;2.13;;;;;;;-145.69;100.00;72891.09;5055333;28;20199;-76
2022/09/20 01:28:48;;;;;;;8.00;2.70;;;;;;;-145.69;100.00;72877.16;5055381;28;20397;-77
2022/09/20 01:31:20;;;;;;;12.03;2.67;;;;;;;-145.69;100.00;72895.06;5055185;28;20298;-76
2022/09/20 01:33:49;;;;;;;9.87;2.23;;;;;;;-145.69;100.00;72905.03;5055319;28;20378;-76
2022/09/20 01:36:20;;;;;;;7.43;1.90;;;;;;;-145.69;100.00;72914.97;5055051;28;20203;-76
2022/09/20 01:38:58;;;;;;;10.23;2.37;;;;;;;-145.69;100.00;72913.00;5088692;28;20197;-76
2022/09/20 01:41:33;;;;;;;8.80;2.30;;;;;;;-145.69;100.00;72920.94;5095235;28;20568;-76
2022/09/20 01:44:08;;;;;;;8.10;3.00;;;;;;;-145.69;100.00;72918.97;5095173;28;20230;-76
2022/09/20 01:46:36;;;;;;;3.97;2.23;;;;;;;-145.69;100.00;72913.00;5095105;28;20244;-76
2022/09/20 01:49:18;;;;;;;10.90;2.73;;;;;;;-145.69;100.00;72918.97;5094690;28;20237;-76
2022/09/20 01:52:33;;;;;;;6.43;2.57;;;;;;;-145.69;100.00;72926.91;5085685;28;20225;-76
2022/09/20 01:55:27;;;;;;;11.63;2.67;;;;;;;-145.69;100.00;72928.91;5056810;28;20203;-76
2022/09/20 01:58:28;;;;;;;9.73;2.97;;;;;;;-145.69;100.00;72930.91;5030638;28;20566;-76
2022/09/20 02:01:23;;;;;;;5.27;2.47;;;;;;;-145.69;100.00;72920.94;5074502;28;20653;-76
2022/09/20 02:04:34;;;;;;;16.57;2.50;;;;;;;-145.69;100.00;72926.91;5074289;28;20195;-77
2022/09/20 02:07:12;;;;;;;16.90;3.07;;;;;;;-145.69;100.00;72907.00;5094445;28;20201;-77
2022/09/20 02:10:12;;;;;;;20.27;2.83;;;;;;;-145.69;100.00;72899.06;5094498;28;20237;-76
2022/09/20 02:12:52;;;;;;;6.67;2.50;;;;;;;-145.69;100.00;72916.97;5094667;28;20209;-76
2022/09/20 02:15:40;;;;;;;7.77;2.83;;;;;;;-145.69;100.00;72914.97;5094518;28;20236;-76
2022/09/20 02:18:20;;;;;;;13.97;3.43;;;;;;;-145.69;100.00;72918.97;5094348;28;20201;-76
2022/09/20 02:20:56;;;;;;;10.27;2.77;;;;;;;-145.69;100.00;72907.00;5075444;28;20199;-76
2022/09/20 02:23:40;;;;;;;8.50;3.30;;;;;;;-145.69;100.00;72885.13;5074244;28;20202;-76
2022/09/20 02:26:22;;;;;;;15.13;3.60;;;;;;;-145.69;100.00;72853.28;5073930;28;20654;-76
2022/09/20 02:28:55;;;;;;;9.47;3.50;;;;;;;-145.69;100.00;72819.44;5073083;28;20285;-76
2022/09/20 02:31:35;;;;;;;18.75;5.13;;;;;;;-145.69;100.00;72827.38;5072773;28;20453;-76
2022/09/20 02:34:24;;;;;;;8.50;3.40;;;;;;;-145.69;100.00;72849.28;5090141;28;20675;-76
2022/09/20 02:37:07;;;;;;;15.83;3.10;;;;;;;-145.69;100.00;72847.28;5094105;28;20194;-76
2022/09/20 02:39:38;;;;;;;4.83;2.47;;;;;;;-145.69;100.00;72859.25;5094131;28;20205;-76
2022/09/20 02:42:12;;;;;;;9.67;2.60;;;;;;;-145.69;100.00;72875.16;5089031;28;20195;-76
2022/09/20 02:44:53;;;;;;;5.50;2.37;;;;;;;-145.69;100.00;72885.13;5073763;28;20201;-76
2022/09/20 02:47:27;;;;;;;12.53;2.60;;;;;;;-145.69;100.00;72879.16;5087376;28;20190;-76
2022/09/20 02:50:08;;;;;;;8.30;2.63;;;;;;;-145.69;100.00;72881.13;5093793;28;20237;-76
2022/09/20 02:52:44;;;;;;;8.77;2.57;;;;;;;-145.69;100.00;72889.09;5073697;28;20209;-75
2022/09/20 02:55:24;;;;;;;15.87;2.60;;;;;;;-145.69;100.00;72897.06;5073342;28;20238;-75
2022/09/20 02:58:01;;;;;;;8.83;2.70;;;;;;;-145.69;100.00;72893.09;5073295;28;20202;-75
2022/09/20 03:00:37;;;;;;;8.97;2.73;;;;;;;-145.69;100.00;72895.06;5083524;28;20194;-75
2022/09/20 03:03:13;;;;;;;9.97;2.80;;;;;;;-145.69;100.00;72891.09;5056068;28;20206;-75
2022/09/20 03:05:51;;;;;;;9.40;2.87;;;;;;;-145.69;100.00;72887.09;5053273;28;20650;-75
2022/09/20 03:08:39;;;;;;;11.30;3.30;;;;;;;-145.69;100.00;72871.19;5053098;28;20225;-75
2022/09/20 03:11:15;;;;;;;15.07;3.80;;;;;;;-145.69;100.00;72883.13;5053193;28;20617;-76
2022/09/20 03:13:55;;;;;;;18.45;4.30;;;;;;;-145.69;100.00;72897.06;5065583;28;21072;-75
2022/09/20 03:16:34;;;;;;;7.33;2.73;;;;;;;-145.69;100.00;72905.03;5093491;28;20198;-76
2022/09/20 03:19:08;;;;;;;17.03;3.00;;;;;;;-145.69;100.00;72914.97;5082670;28;20198;-76
2022/09/20 03:21:51;;;;;;;14.03;3.10;;;;;;;-145.69;100.00;72909.00;5073053;28;20198;-75
2022/09/20 03:24:28;;;;;;;6.07;2.33;;;;;;;-145.69;100.00;72918.97;5074172;28;20199;-75
2022/09/20 03:26:59;;;;;;;6.10;2.97;;;;;;;-145.69;100.00;72926.91;5073041;28;20234;-76
2022/09/20 03:29:40;;;;;;;13.90;2.87;;;;;;;-145.69;100.00;72924.94;5073166;28;20233;-75
2022/09/20 03:32:22;;;;;;;12.30;3.20;;;;;;;-145.69;100.00;72926.91;5052988;28;20200;-76
2022/09/20 03:34:58;;;;;;;12.63;3.27;;;;;;;-145.69;100.00;72932.91;5052730;28;20214;-74
2022/09/20 03:37:45;;;;;;;14.93;2.80;;;;;;;-145.69;100.00;72920.94;5052835;28;20206;-75
2022/09/20 03:40:56;;;;;;;14.40;3.90;;;;;;;-145.69;100.00;72913.00;5052956;28;20200;-75
2022/09/20 03:43:37;;;;;;;5.40;2.33;;;;;;;-145.69;100.00;72938.88;5036247;28;20639;-75
2022/09/20 03:46:16;;;;;;;9.40;3.03;;;;;;;-145.69;100.00;72940.84;5093243;28;20198;-75
2022/09/20 03:49:15;;;;;;;9.57;3.83;;;;;;;-145.69;100.00;72914.97;5093029;28;20267;-76
2022/09/20 03:51:48;;;;;;;17.17;3.60;;;;;;;-145.69;100.00;72899.06;5058651;28;20569;-75
2022/09/20 03:54:33;;;;;;;13.37;3.47;;;;;;;-145.69;100.00;72895.06;5092885;28;20201;-75
2022/09/20 03:57:28;;;;;;;15.57;4.37;;;;;;;-145.69;100.00;72891.09;5091555;28;20213;-76
2022/09/20 04:00:22;;;;;;;16.80;4.47;;;;;;;-145.69;100.00;72883.13;5072739;28;20199;-75
2022/09/20 04:03:25;;;;;;;13.50;4.13;;;;;;;-145.69;100.00;72895.06;5072782;28;20252;-75
2022/09/20 04:06:05;;;;;;;13.47;3.87;;;;;;;-145.69;100.00;72903.03;5059624;28;20198;-76
2022/09/20 04:08:55;;;;;;;19.17;4.03;;;;;;;-145.69;100.00;72875.16;5072563;28;20203;-75
2022/09/20 04:11:30;;;;;;;17.37;4.50;;;;;;;-145.69;100.00;72869.19;5076686;28;20218;-75
2022/09/20 04:14:04;;;;;;;8.23;3.13;;;;;;;-145.69;100.00;72893.09;5092839;28;20395;-75
2022/09/20 04:16:41;;;;;;;7.97;2.97;;;;;;;-145.69;100.00;72922.94;5092833;28;20205;-75
2022/09/20 04:19:15;;;;;;;8.63;3.13;;;;;;;-145.69;100.00;72932.91;5092554;28;20699;-75
2022/09/20 04:21:49;;;;;;;15.03;3.50;;;;;;;-145.69;100.00;72940.84;5092846;28;20618;-76
2022/09/20 04:24:22;;;;;;;15.50;3.27;;;;;;;-145.69;100.00;72962.75;5092792;28;20224;-75
2022/09/20 04:26:56;;;;;;;11.50;2.90;;;;;;;-145.69;100.00;72962.75;5090976;28;20679;-75
2022/09/20 04:29:31;;;;;;;11.07;3.10;;;;;;;-145.69;100.00;72974.69;5092099;28;20579;-75
2022/09/20 04:32:07;;;;;;;10.80;3.27;;;;;;;-145.69;100.00;72970.72;5092760;28;20206;-75
2022/09/20 04:37:32;;;;;;;9.40;3.33;;;;;;;-145.69;100.00;72966.72;5092452;28;20294;-75
2022/09/20 04:40:09;;;;;;;16.73;3.37;;;;;;;-145.69;100.00;72968.72;5080687;28;20209;-75
2022/09/20 04:43:14;;;;;;;11.97;3.47;;;;;;;-145.69;100.00;72958.78;5072421;28;20294;-76
2022/09/20 04:46:17;;;;;;;10.10;3.47;;;;;;;-145.69;100.00;72934.88;4997590;28;20216;-75
2022/09/20 04:49:35;;;;;;;17.42;5.90;;;;;;;-145.69;100.00;72920.94;5071805;28;20435;-76
2022/09/20 04:52:41;;;;;;;17.40;4.73;;;;;;;-145.69;100.00;72926.91;5055901;28;20286;-75
2022/09/20 04:55:30;;;;;;;13.13;4.20;;;;;;;-145.69;100.00;72936.88;5058019;28;20651;-76
2022/09/20 04:58:37;;;;;;;13.43;3.90;;;;;;;-145.69;100.00;72936.88;5055555;28;20196;-76
2022/09/20 05:01:38;;;;;;;13.73;3.80;;;;;;;-145.69;100.00;72958.78;5055678;28;20211;-75
2022/09/20 05:04:37;;;;;;;12.67;3.17;;;;;;;-145.69;100.00;72972.72;5055505;28;20245;-75
2022/09/20 05:07:43;;;;;;;9.90;3.37;;;;;;;-145.69;100.00;72982.66;5067968;28;20194;-75
2022/09/20 05:10:28;;;;;;;9.13;3.13;;;;;;;-145.69;100.00;72990.63;5095816;28;20229;-75
2022/09/20 05:13:13;;;;;;;12.90;3.30;;;;;;;-145.69;100.00;72996.59;5095574;28;20580;-75
2022/09/20 05:15:50;;;;;;;12.50;3.50;;;;;;;-145.69;100.00;72994.59;5095524;28;20301;-75
2022/09/20 05:18:56;;;;;;;19.13;3.87;;;;;;;-145.69;100.00;72986.63;5095560;28;20206;-75
2022/09/20 05:21:43;;;;;;;7.30;3.03;;;;;;;-145.69;100.00;72990.63;5084116;28;20210;-75
2022/09/20 05:24:23;;;;;;;14.70;4.20;;;;;;;-145.69;100.00;72986.63;5075433;28;20203;-75
2022/09/20 05:27:06;;;;;;;17.67;4.00;;;;;;;-145.69;100.00;72966.72;5075354;28;20229;-75
2022/09/20 05:29:42;;;;;;;11.07;3.73;;;;;;;-145.69;100.00;72978.69;5075174;28;20657;-75
2022/09/20 05:32:17;;;;;;;10.03;3.70;;;;;;;-145.69;100.00;72980.66;5075020;28;20213;-75
2022/09/20 05:34:50;;;;;;;12.40;5.30;;;;;;;-145.69;100.00;72978.69;5079489;28;20984;-75
2022/09/20 05:37:28;;;;;;;17.73;4.20;;;;;;;-145.69;100.00;72978.69;5095373;28;20285;-74
2022/09/20 05:40:03;;;;;;;9.03;3.47;;;;;;;-145.69;100.00;72974.69;5095291;28;20210;-75
2022/09/20 05:42:40;;;;;;;7.53;3.97;;;;;;;-145.69;100.00;72968.72;5094952;28;20208;-75
2022/09/20 05:45:22;;;;;;;13.87;3.57;;;;;;;-145.69;100.00;72962.75;5095376;28;20202;-75
2022/09/20 05:47:57;;;;;;;18.30;3.60;;;;;;;-145.69;100.00;72950.81;5095205;28;20198;-75
2022/09/20 05:50:39;;;;;;;13.20;3.60;;;;;;;-145.69;100.00;72938.88;5075715;28;20237;-75
2022/09/20 05:53:39;;;;;;;12.20;3.60;;;;;;;-145.69;100.00;72930.91;5075091;28;20195;-75
2022/09/20 05:56:15;;;;;;;14.63;4.30;;;;;;;-145.69;100.00;72926.91;5030483;28;20661;-75
2022/09/20 05:58:57;;;;;;;16.00;3.90;;;;;;;-145.69;100.00;72918.97;5074589;28;20203;-75
2022/09/20 06:01:28;;;;;;;14.57;3.87;;;;;;;-145.69;100.00;72913.00;5075535;28;20194;-75
2022/09/20 06:04:09;;;;;;;8.63;3.70;;;;;;;-145.69;100.00;72903.03;5073591;28;20222;-75
2022/09/20 06:06:49;;;;;;;11.37;3.93;;;;;;;-145.69;100.00;72883.13;5074400;28;20650;-76
2022/09/20 06:09:30;;;;;;;9.47;4.10;;;;;;;-145.69;100.00;72859.25;5074289;28;20225;-76
2022/09/20 06:12:17;;;;;;;15.73;4.07;;;;;;;-145.69;100.00;72839.34;5075666;28;20319;-75
2022/09/20 06:14:51;;;;;;;10.70;4.10;;;;;;;-145.69;100.00;72819.44;5094593;28;20267;-76
2022/09/20 06:17:26;;;;;;;12.20;4.73;;;;;;;-145.69;100.00;72805.50;5094333;28;20534;-75
2022/09/20 06:20:10;;;;;;;13.20;4.40;;;;;;;-145.69;100.00;72767.69;5094356;28;20201;-75
2022/09/20 06:22:40;;;;;;;14.97;4.80;;;;;;;-145.69;100.00;72747.78;5094461;28;20538;-75
2022/09/20 06:25:16;;;;;;;21.97;5.40;;;;;;;-145.69;100.00;72715.91;5094634;28;20206;-75
2022/09/20 06:27:47;;;;;;;21.43;5.70;;;;;;;-145.69;100.00;72676.09;5077400;28;20201;-75
2022/09/20 06:30:16;;;;;;;24.07;6.40;;;;;;;-145.69;100.00;72636.31;5073881;28;20340;-76
2022/09/20 06:32:57;;;;;;;21.33;6.77;;;;;;;-145.69;100.00;72604.44;5074003;28;20227;-76
2022/09/20 06:35:32;;;;;;;16.37;6.47;;;;;;;-145.69;100.00;72552.69;5073994;28;20201;-75
2022/09/20 06:43:40;;;;;;;20.57;6.30;;;;;;;-145.69;100.00;72498.97;5084582;28;20279;-76
2022/09/20 06:46:07;;;;;;;13.83;6.50;;;;;;;-145.69;100.00;72496.97;5094029;28;20198;-76
2022/09/20 06:48:38;;;;;;;23.97;5.70;;;;;;;-145.69;100.00;72469.09;5093534;28;20267;-76
2022/09/20 06:51:08;;;;;;;26.70;7.00;;;;;;;-145.69;100.00;72485.03;5078818;28;20571;-74
2022/09/20 06:53:39;;;;;;;16.00;5.20;;;;;;;-145.69;100.00;72473.09;5064375;28;20211;-76
2022/09/20 06:56:08;;;;;;;21.00;5.67;;;;;;;-145.69;100.00;72477.06;5093334;28;20201;-76
2022/09/20 06:58:34;;;;;;;12.77;4.93;;;;;;;-145.69;100.00;72477.06;5093775;28;20216;-76
2022/09/20 07:01:01;;;;;;;14.47;4.97;;;;;;;-145.69;100.00;72479.06;5091926;28;20197;-75
2022/09/20 07:03:27;;;;;;;12.30;4.20;;;;;;;-145.69;100.00;72457.16;5093567;28;20290;-75
2022/09/20 07:05:55;;;;;;;15.73;3.67;;;;;;;-145.69;100.00;72453.19;5093433;28;20537;-75
2022/09/20 07:08:22;;;;;;;10.57;3.87;;;;;;;-145.69;100.00;72417.34;5084388;28;20222;-75
2022/09/20 07:10:49;;;;;;;21.40;5.27;;;;;;;-145.69;100.00;72355.66;5073109;28;20222;-76
2022/09/20 07:13:17;;;;;;;16.53;5.33;;;;;;;-145.69;100.00;72315.84;5072990;28;20603;-75
2022/09/20 07:15:43;;;;;;;15.63;4.40;;;;;;;-145.69;100.00;72321.81;5072828;28;20667;-76
2022/09/20 07:18:10;;;;;;;10.43;3.00;;;;;;;-145.69;100.00;72325.81;5073034;28;20236;-76
2022/09/20 07:20:36;;;;;;;6.77;3.20;;;;;;;-145.69;100.00;72305.91;5072910;28;20198;-75
2022/09/20 07:23:06;;;;;;;17.70;3.67;;;;;;;-145.69;100.00;72256.13;5084958;28;20652;-75
2022/09/20 07:25:35;;;;;;;14.30;5.73;;;;;;;-145.69;100.00;72188.47;5092894;28;20198;-75
2022/09/20 07:28:02;;;;;;;16.33;5.67;;;;;;;-145.69;100.00;72234.25;5093236;28;20572;-76
2022/09/20 07:30:28;;;;;;;15.23;6.43;;;;;;;-145.69;100.00;72218.31;5093065;28;20222;-75
2022/09/20 07:32:55;;;;;;;14.50;5.20;;;;;;;-145.69;100.00;72184.50;5092979;28;20202;-75
2022/09/20 07:35:22;;;;;;;11.63;3.27;;;;;;;-145.69;100.00;72214.34;5090869;28;20687;-76
2022/09/20 07:37:48;;;;;;;14.60;3.70;;;;;;;-145.69;100.00;72238.22;5072972;28;20199;-75
2022/09/20 07:40:15;;;;;;;19.17;6.80;;;;;;;-145.69;100.00;72254.16;5072871;28;20205;-76
2022/09/20 07:42:44;;;;;;;16.30;3.43;;;;;;;-145.69;100.00;72305.91;5072956;28;20206;-76
2022/09/20 07:45:11;;;;;;;10.67;3.03;;;;;;;-145.69;100.00;72311.88;5071935;28;20442;-76
2022/09/20 07:47:40;;;;;;;13.97;2.73;;;;;;;-145.69;100.00;72329.78;5073033;28;20294;-76
2022/09/20 07:50:08;;;;;;;10.37;3.53;;;;;;;-145.69;100.00;72289.97;5083540;28;20701;-76
2022/09/20 07:52:35;;;;;;;7.37;2.60;;;;;;;-145.69;100.00;72274.06;5092885;28;20229;-76
2022/09/20 07:55:01;;;;;;;10.88;3.67;;;;;;;-145.69;100.00;72236.22;5091991;28;20425;-76
2022/09/20 07:57:28;;;;;;;9.60;3.20;;;;;;;-145.69;100.00;72232.25;5092837;28;20201;-75
2022/09/20 07:59:56;;;;;;;10.20;3.53;;;;;;;-145.69;100.00;72262.09;5092759;28;20202;-74
2022/09/20 08:02:22;;;;;;;11.40;3.77;;;;;;;-145.69;100.00;72240.22;5092741;28;20206;-75
2022/09/20 08:04:49;;;;;;;12.80;4.33;;;;;;;-145.69;100.00;72222.31;5081254;28;20565;-74
2022/09/20 08:07:15;;;;;;;7.53;4.07;;;;;;;-145.69;100.00;72182.50;5092810;28;20201;-75
2022/09/20 08:09:42;;;;;;;13.13;4.60;;;;;;;-145.69;100.00;72158.63;5092695;28;20207;-77
2022/09/20 08:12:08;;;;;;;12.77;4.37;;;;;;;-145.69;100.00;72182.50;5092369;28;20570;-77
2022/09/20 08:14:35;;;;;;;13.73;4.57;;;;;;;-145.69;100.00;72142.69;5092665;28;20202;-75
2022/09/20 08:17:03;;;;;;;12.20;4.33;;;;;;;-145.69;100.00;72075.03;5082548;28;20201;-77
2022/09/20 08:19:30;;;;;;;11.83;4.27;;;;;;;-145.69;100.00;72094.94;5072483;28;20198;-77
2022/09/20 08:21:56;;;;;;;11.23;3.37;;;;;;;-145.69;100.00;72136.72;5072517;28;20202;-76
2022/09/20 08:24:25;;;;;;;21.70;4.10;;;;;;;-145.69;100.00;72158.63;5072402;28;20206;-76
2022/09/20 08:26:51;;;;;;;11.10;3.37;;;;;;;-145.69;100.00;72224.28;5073333;28;20230;-75
2022/09/20 08:29:18;;;;;;;13.90;3.67;;;;;;;-145.69;100.00;72240.22;5076065;28;20214;-76
2022/09/20 08:31:45;;;;;;;9.33;4.23;;;;;;;-145.69;100.00;72242.22;5094121;28;20221;-76
2022/09/20 08:34:14;;;;;;;11.23;3.73;;;;;;;-145.69;100.00;72240.22;5096335;28;20220;-76
2022/09/20 08:36:45;;;;;;;10.87;4.10;;;;;;;-145.69;100.00;72228.28;5096468;28;20206;-76
2022/09/20 08:39:13;;;;;;;9.70;3.57;;;;;;;-145.69;100.00;72248.19;5096446;28;20238;-76
2022/09/20 08:41:44;;;;;;;10.03;3.80;;;;;;;-145.69;100.00;72224.28;5095905;28;20194;-76
2022/09/20 08:44:16;;;;;;;14.87;4.20;;;;;;;-145.69;100.00;72214.34;5094686;28;20201;-76
2022/09/20 08:46:47;;;;;;;9.87;3.13;;;;;;;-145.69;100.00;72208.38;5096361;28;20206;-75
2022/09/20 08:49:21;;;;;;;13.47;3.27;;;;;;;-145.69;100.00;72214.34;5090000;28;20318;-76
2022/09/20 08:51:49;;;;;;;7.80;3.40;;;;;;;-145.69;100.00;72210.38;5055811;28;20227;-76
2022/09/20 08:54:16;;;;;;;9.90;3.10;;;;;;;-145.69;100.00;72186.47;5055773;28;20547;-75
2022/09/20 08:56:44;;;;;;;10.87;2.63;;;;;;;-145.69;100.00;72158.63;5055557;28;20204;-76
2022/09/20 08:59:16;;;;;;;7.10;2.20;;;;;;;-145.69;100.00;72126.78;5092597;28;20198;-76
2022/09/20 09:01:43;;;;;;;10.27;2.93;;;;;;;-145.69;100.00;72114.81;5095827;28;20205;-75
2022/09/20 09:04:13;;;;;;;7.40;2.63;;;;;;;-145.69;100.00;72148.66;5089053;28;20425;-76
2022/09/20 09:06:42;;;;;;;11.13;2.63;;;;;;;-145.69;100.00;72160.59;5067923;28;20289;-75
2022/09/20 09:09:17;;;;;;;11.87;2.70;;;;;;;-145.69;100.00;72178.53;5075483;28;20203;-75
2022/09/20 09:11:44;;;;;;;8.37;2.00;;;;;;;-145.69;100.00;72182.50;5075676;28;20227;-76
2022/09/20 09:17:01;;;;;;;7.97;1.87;;;;;;;-145.69;100.00;72136.72;5074999;28;20205;-76
2022/09/20 09:19:29;;;;;;;7.13;2.20;;;;;;;-145.69;100.00;72122.78;5075205;28;20206;-76
2022/09/20 09:22:01;;;;;;;12.30;1.67;;;;;;;-145.69;100.00;72144.69;5075051;28;20202;-77
2022/09/20 09:24:30;;;;;;;9.60;1.90;;;;;;;-145.69;100.00;72148.66;5075154;28;20237;-76
2022/09/20 09:27:06;;;;;;;5.17;1.37;;;;;;;-145.69;94.72;72150.66;5064752;28;20580;-76
2022/09/20 09:29:33;;;;;;;9.67;1.67;;;;;;;-145.69;95.49;72154.63;5074987;28;20194;-76
2022/09/20 09:32:22;;;;;;;8.47;1.37;;;;;;;-145.69;96.89;72150.66;5074845;28;20723;-76
2022/09/20 09:34:49;;;;;;;12.57;1.63;;;;;;;-145.69;92.68;72118.81;5075145;28;20599;-76
2022/09/20 09:37:26;;;;;;;3.50;1.13;;;;;;;-145.69;92.13;72102.88;5074926;28;20234;-76
2022/09/20 09:40:15;;;;;;;8.80;1.10;;;;;;;-145.69;89.71;72086.97;5074792;28;20199;-76
2022/09/20 09:42:49;;;;;;;6.37;1.67;;;;;;;-145.69;83.85;72035.22;5074984;28;20304;-76
2022/09/20 09:45:30;;;;;;;5.40;1.20;;;;;;;-145.69;83.25;71993.44;5074916;28;20229;-77
2022/09/20 09:47:59;;;;;;;5.83;1.30;;;;;;;-145.69;87.51;71911.84;5074867;28;20245;-76
2022/09/20 09:50:29;;;;;;;2.70;1.10;;;;;;;-145.69;74.76;71903.88;5074358;28;20250;-76
2022/09/20 09:53:10;;;;;;;7.80;1.08;;;;;;;-145.69;76.65;71941.69;5084680;28;20225;-77
2022/09/20 09:55:59;;;;;;;4.63;1.33;;;;;;;-145.69;81.62;71965.56;5094733;28;20237;-78
2022/09/20 09:58:43;;;;;;;5.82;1.40;;;;;;;-145.69;80.14;71979.50;5094765;28;20194;-76
2022/09/20 10:01:24;;;;;;;3.70;0.90;;;;;;;-145.69;75.75;72035.22;5095027;28;20201;-77
2022/09/20 10:03:58;;;;;;;5.25;0.88;;;;;;;-145.69;77.70;72049.16;5094827;28;20202;-77
2022/09/20 10:06:33;;;;;;;2.47;1.00;;;;;;;-145.69;80.01;72051.16;5089297;28;20653;-77
2022/09/20 10:09:21;;;;;;;4.50;1.00;;;;;;;-145.69;80.29;72013.31;5076249;28;20201;-76
2022/09/20 10:12:04;;;;;;;6.00;1.10;;;;;;;-145.69;80.08;71939.69;5073808;28;20453;-79
2022/09/20 10:14:44;;;;;;;9.90;1.75;;;;;;;-145.69;81.27;71925.75;5074370;28;20199;-76
2022/09/20 10:17:28;;;;;;;4.20;1.30;;;;;;;-145.69;72.02;71864.06;5074112;28;20199;-75
2022/09/20 10:20:10;;;;;;;4.22;1.20;;;;;;;-145.69;74.16;71866.06;5076687;28;20195;-76
2022/09/20 10:22:48;;;;;;;8.90;1.20;;;;;;;-145.69;77.62;71860.09;5094276;28;20194;-77
2022/09/20 10:25:25;;;;;;;2.67;1.00;;;;;;;-145.69;75.13;71844.16;5094271;28;20211;-77
2022/09/20 10:28:04;;;;;;;9.27;1.70;;;;;;;-145.69;72.82;71854.13;5094293;28;20233;-77
2022/09/20 10:30:42;;;;;;;4.50;1.30;;;;;;;-145.69;74.87;71870.03;5082369;28;20209;-78
2022/09/20 10:33:22;;;;;;;6.30;1.55;;;;;;;-145.69;75.88;71911.84;5073385;28;20253;-76
2022/09/20 10:35:57;;;;;;;13.05;1.58;;;;;;;-145.69;83.36;71939.69;5073666;28;20191;-76
2022/09/20 10:38:30;;;;;;;4.85;1.02;;;;;;;-145.69;78.24;71933.72;5073651;28;20205;-76
2022/09/20 10:44:11;;;;;;;7.93;1.20;;;;;;;-145.69;73.90;71864.06;5073678;28;20197;-75
2022/09/20 10:46:50;;;;;;;1.88;0.80;;;;;;;-145.69;64.30;71824.25;5073564;28;20238;-75
2022/09/20 10:49:22;;;;;;;3.22;0.82;;;;;;;-145.69;62.89;71768.53;5084932;28;20248;-75
2022/09/20 10:52:01;;;;;;;4.50;1.08;;;;;;;-145.69;67.26;71802.38;5090975;28;20247;-76
2022/09/20 10:54:38;;;;;;;2.97;0.82;;;;;;;-145.69;66.85;71764.56;5074580;28;20683;-78
2022/09/20 10:57:23;;;;;;;3.97;0.98;;;;;;;-145.69;66.32;71766.56;5068666;28;20550;-80
2022/09/20 11:00:04;;;;;;;4.75;1.10;;;;;;;-145.69;60.21;71746.66;5072249;28;20779;-75
2022/09/20 11:02:45;;;;;;;2.40;0.73;;;;;;;-145.69;57.53;71764.56;5058116;28;20200;-76
2022/09/20 11:05:34;;;;;;;1.10;0.80;;;;;;;-145.69;66.61;71824.25;5053246;28;20203;-77
2022/09/20 11:08:10;;;;;;;5.25;0.95;;;;;;;-145.69;63.57;71780.50;5067719;28;20676;-76
2022/09/20 11:10:42;;;;;;;6.07;0.80;;;;;;;-145.69;60.59;71788.44;5073253;28;20202;-77
2022/09/20 11:13:22;;;;;;;2.95;0.90;;;;;;;-145.69;58.16;71750.63;5073201;28;20245;-76
2022/09/20 11:15:54;;;;;;;3.17;0.68;;;;;;;-145.69;62.82;71720.78;5073087;28;20244;-76
2022/09/20 11:18:26;;;;;;;2.65;0.73;;;;;;;-145.69;62.90;71768.53;5072492;28;20198;-78
2022/09/20 11:21:00;;;;;;;6.43;0.90;;;;;;;-145.69;64.76;71760.59;5073060;28;20768;-75
2022/09/20 11:23:34;;;;;;;4.72;0.70;;;;;;;-145.69;68.12;71724.75;5072948;28;20296;-75
2022/09/20 11:26:07;;;;;;;3.83;0.80;;;;;;;-145.69;66.79;71659.09;5073071;28;20297;-78
2022/09/20 11:28:39;;;;;;;4.80;0.80;;;;;;;-145.69;60.40;71651.13;5072864;28;20206;-80
2022/09/20 11:31:10;;;;;;;3.78;0.80;;;;;;;-145.69;57.20;71700.88;5073144;28;20207;-77
2022/09/20 11:33:43;;;;;;;3.28;1.10;;;;;;;-145.69;59.95;71736.72;5072816;28;20316;-77
2022/09/20 11:36:17;;;;;;;16.77;1.40;;;;;;;-145.69;60.84;71780.50;5072999;28;20203;-79
2022/09/20 11:38:49;;;;;;;3.88;1.00;;;;;;;-145.69;61.46;71800.38;5072709;28;20222;-77
2022/09/20 11:41:20;;;;;;;2.65;0.93;;;;;;;-145.69;62.35;71842.19;5073068;28;20206;-76
2022/09/20 11:43:50;;;;;;;5.53;1.10;;;;;;;-145.69;74.11;71860.09;5072730;28;20684;-76
2022/09/20 11:46:24;;;;;;;5.85;1.20;;;;;;;-145.69;79.17;71899.88;5072845;28;20573;-76
2022/09/20 11:48:56;;;;;;;7.35;1.33;;;;;;;-145.69;75.68;71917.81;5072471;28;20222;-78
2022/09/20 11:51:59;;;;;;;6.85;0.90;;;;;;;-145.69;76.95;71887.94;5072677;28;20654;-76
2022/09/20 11:54:47;;;;;;;4.03;1.13;;;;;;;-145.69;72.73;71850.13;5070296;28;20247;-79
2022/09/20 11:57:15;;;;;;;8.05;1.25;;;;;;;-145.69;76.55;71812.31;5072646;28;20203;-75
2022/09/20 11:59:51;;;;;;;3.33;1.20;;;;;;;-145.69;68.90;71772.53;5072664;28;20199;-76
2022/09/20 12:02:22;;;;;;;4.85;1.10;;;;;;;-145.69;67.72;71768.53;5074057;28;20297;-76